Time;durP1;ratioP1;P1;durP2;ratioP2;P2;SDS_P1;SDS_P2;PMS_P1;PMS_P2;Temp;Humidity;BMP_temperature;BMP_pressure;BME280_temperature;BME280_humidity;BME280_pressure;Samples;Min_cycle;Max_cycle;Signal;HPM_P1;HPM_P2
2023/10/29 00:01:28;;;;;;;27.77;5.93;;;;;;;11.20;100.00;97968.41;4991006;28;20514;-77
2023/10/29 00:03:55;;;;;;;29.20;4.88;;;;;;;11.26;100.00;97958.38;4986433;28;20481;-77
2023/10/29 00:06:23;;;;;;;30.80;6.75;;;;;;;11.36;100.00;97940.94;4997766;28;20545;-76
2023/10/29 00:08:49;;;;;;;32.45;7.85;;;;;;;11.19;100.00;97948.44;4991540;28;20061;-77
2023/10/29 00:11:16;;;;;;;26.63;6.25;;;;;;;11.38;100.00;97942.47;4991265;28;20054;-76
2023/10/29 00:13:43;;;;;;;29.02;7.03;;;;;;;11.32;100.00;97950.84;4992913;28;20049;-76
2023/10/29 00:16:11;;;;;;;30.67;6.18;;;;;;;11.26;100.00;97956.63;4994946;28;20054;-76
2023/10/29 00:18:38;;;;;;;30.08;5.82;;;;;;;11.29;100.00;97948.47;4992034;28;20483;-77
2023/10/29 00:21:05;;;;;;;19.00;4.75;;;;;;;11.13;100.00;97941.09;4997655;28;20053;-77
2023/10/29 00:23:33;;;;;;;24.02;5.38;;;;;;;11.16;100.00;97947.88;4991720;28;20553;-77
2023/10/29 00:26:00;;;;;;;21.65;4.63;;;;;;;11.10;100.00;97953.63;4987483;28;20108;-77
2023/10/29 00:28:27;;;;;;;22.13;5.05;;;;;;;11.18;100.00;97961.66;4997890;28;20506;-76
2023/10/29 00:30:55;;;;;;;23.75;4.25;;;;;;;11.07;100.00;97959.13;4990920;28;20134;-77
2023/10/29 00:33:22;;;;;;;23.00;4.68;;;;;;;11.06;100.00;97958.28;4993691;28;20054;-77
2023/10/29 00:35:50;;;;;;;27.70;4.93;;;;;;;11.12;100.00;97954.31;4991833;28;20097;-77
2023/10/29 00:38:16;;;;;;;25.83;5.10;;;;;;;10.97;100.00;97940.72;4996147;28;20050;-77
2023/10/29 00:40:43;;;;;;;20.55;4.80;;;;;;;11.15;100.00;97956.69;4992243;28;20050;-77
2023/10/29 00:43:14;;;;;;;22.23;6.13;;;;;;;11.08;100.00;97958.16;4995414;28;20668;-77
2023/10/29 00:45:42;;;;;;;26.90;5.18;;;;;;;11.05;100.00;97950.56;4998271;28;20230;-76
2023/10/29 00:48:11;;;;;;;28.27;5.93;;;;;;;11.05;100.00;97935.69;4992139;28;20056;-76
2023/10/29 00:50:39;;;;;;;29.13;5.88;;;;;;;11.13;100.00;97935.03;4991092;28;20050;-76
2023/10/29 00:53:06;;;;;;;25.80;4.88;;;;;;;11.24;100.00;97958.50;4991221;28;20058;-77
2023/10/29 00:55:35;;;;;;;36.95;6.40;;;;;;;10.98;100.00;97942.41;4992180;28;20066;-77
2023/10/29 00:58:02;;;;;;;29.33;5.93;;;;;;;11.04;100.00;97949.72;4991376;28;20133;-77
2023/10/29 01:00:29;;;;;;;24.10;5.15;;;;;;;11.09;100.00;97941.50;4990825;28;20050;-77
2023/10/29 01:02:56;;;;;;;28.00;6.07;;;;;;;11.04;100.00;97948.91;4981394;28;20051;-77
2023/10/29 01:05:23;;;;;;;39.85;7.25;;;;;;;10.88;100.00;97942.31;5008597;28;20514;-77
2023/10/29 01:07:50;;;;;;;29.20;5.40;;;;;;;11.08;100.00;97947.69;4991289;28;20524;-77
2023/10/29 01:10:16;;;;;;;28.50;5.53;;;;;;;11.00;100.00;97949.16;4999075;28;20054;-77
2023/10/29 01:12:44;;;;;;;22.88;4.43;;;;;;;11.25;100.00;97946.28;4991312;28;20054;-77
2023/10/29 01:15:10;;;;;;;31.27;5.18;;;;;;;11.05;100.00;97934.84;4991822;28;20054;-77
2023/10/29 01:17:38;;;;;;;24.02;5.72;;;;;;;11.09;100.00;97933.66;4991318;28;20053;-77
2023/10/29 01:20:05;;;;;;;29.80;5.78;;;;;;;11.07;100.00;97938.19;4991603;28;20062;-77
2023/10/29 01:22:33;;;;;;;22.90;5.05;;;;;;;10.97;100.00;97938.13;4983329;28;20114;-77
2023/10/29 01:25:02;;;;;;;25.52;6.45;;;;;;;11.07;100.00;97938.19;4990865;28;20137;-77
2023/10/29 01:27:29;;;;;;;26.20;4.97;;;;;;;10.99;100.00;97929.16;5000841;28;20051;-77
2023/10/29 01:29:56;;;;;;;31.52;5.32;;;;;;;11.09;100.00;97921.38;4989389;28;20054;-77
2023/10/29 01:32:23;;;;;;;22.30;4.68;;;;;;;11.04;100.00;97915.69;4990442;28;20058;-77
2023/10/29 01:34:50;;;;;;;18.88;4.20;;;;;;;10.90;100.00;97923.88;4995145;28;20146;-76
2023/10/29 01:37:16;;;;;;;26.27;4.20;;;;;;;10.76;100.00;97909.31;4992384;28;20054;-77
2023/10/29 01:39:43;;;;;;;18.92;4.00;;;;;;;10.87;100.00;97913.66;4994728;28;20050;-77
2023/10/29 01:42:10;;;;;;;28.30;5.03;;;;;;;10.92;100.00;97917.53;4995186;28;20050;-76
2023/10/29 01:44:36;;;;;;;32.35;6.28;;;;;;;11.00;100.00;97906.44;4990570;28;20058;-77
2023/10/29 01:47:04;;;;;;;23.88;4.60;;;;;;;10.90;100.00;97916.84;4990674;28;20046;-77
2023/10/29 01:49:31;;;;;;;27.83;6.68;;;;;;;10.91;100.00;97929.00;4991711;28;20053;-77
2023/10/29 01:51:58;;;;;;;21.73;4.57;;;;;;;10.90;100.00;97935.16;4990047;28;20058;-77
2023/10/29 01:54:24;;;;;;;30.30;4.72;;;;;;;10.79;100.00;97919.53;4990646;28;20073;-77
2023/10/29 01:56:52;;;;;;;23.00;4.85;;;;;;;10.82;100.00;97927.16;4990668;28;20064;-77
2023/10/29 01:59:18;;;;;;;32.47;5.82;;;;;;;10.95;100.00;97912.06;4989393;28;20054;-76
2023/10/29 02:01:45;;;;;;;26.50;5.35;;;;;;;10.81;100.00;97907.97;4995361;28;20050;-76
2023/10/29 02:04:11;;;;;;;24.73;4.63;;;;;;;10.90;100.00;97906.38;4991329;28;20057;-77
2023/10/29 02:06:39;;;;;;;21.23;4.65;;;;;;;10.94;100.00;97901.72;4994346;28;20495;-76
2023/10/29 02:09:10;;;;;;;25.08;5.20;;;;;;;10.94;100.00;97899.94;4987736;28;20046;-76
2023/10/29 02:11:38;;;;;;;23.58;5.10;;;;;;;11.05;100.00;97896.41;4988943;28;20555;-77
2023/10/29 02:14:05;;;;;;;29.83;5.18;;;;;;;10.86;100.00;97886.66;4991065;28;20133;-76
2023/10/29 02:16:32;;;;;;;20.60;5.38;;;;;;;10.96;100.00;97884.09;4989129;28;20052;-76
2023/10/29 02:18:59;;;;;;;24.33;4.72;;;;;;;10.93;100.00;97897.44;4988640;28;20414;-76
2023/10/29 02:21:26;;;;;;;23.75;4.55;;;;;;;10.89;100.00;97880.31;4995368;28;20408;-76
2023/10/29 02:23:54;;;;;;;23.52;5.22;;;;;;;10.90;100.00;97861.88;4994620;28;20050;-76
2023/10/29 02:26:24;;;;;;;21.83;5.63;;;;;;;11.12;100.00;97855.66;4993824;28;20477;-76
2023/10/29 02:28:50;;;;;;;31.83;5.25;;;;;;;11.48;100.00;97821.97;4995586;28;20126;-76
2023/10/29 02:31:18;;;;;;;32.30;4.80;;;;;;;11.45;100.00;97827.47;4993330;28;20058;-76
2023/10/29 02:33:46;;;;;;;24.75;4.60;;;;;;;11.19;100.00;97809.66;4995758;28;20531;-77
2023/10/29 02:36:13;;;;;;;27.65;5.75;;;;;;;10.97;100.00;97815.06;4990202;28;20054;-76
2023/10/29 02:38:40;;;;;;;22.73;4.45;;;;;;;10.98;100.00;97832.44;4989561;28;20062;-76
2023/10/29 02:41:07;;;;;;;25.42;4.82;;;;;;;11.08;100.00;97830.69;4990215;28;20068;-76
2023/10/29 02:43:34;;;;;;;26.85;5.45;;;;;;;11.14;100.00;97824.09;4991711;28;20058;-76
2023/10/29 02:46:00;;;;;;;27.33;4.72;;;;;;;11.10;100.00;97812.22;4998355;28;20053;-76
2023/10/29 02:48:27;;;;;;;24.15;4.32;;;;;;;10.89;100.00;97820.13;4990145;28;20078;-76
2023/10/29 02:50:54;;;;;;;19.75;4.85;;;;;;;10.99;100.00;97824.44;4988115;28;20057;-76
2023/10/29 02:53:22;;;;;;;28.30;4.95;;;;;;;11.12;100.00;97819.00;4983893;28;20141;-76
2023/10/29 02:55:48;;;;;;;27.85;4.97;;;;;;;11.01;100.00;97840.88;4994694;28;20416;-75
2023/10/29 02:58:15;;;;;;;18.20;3.15;;;;;;;11.09;100.00;97811.41;4993109;28;20046;-76
2023/10/29 03:00:42;;;;;;;22.58;4.28;;;;;;;11.07;100.00;97809.88;4991582;28;20065;-76
2023/10/29 03:03:08;;;;;;;22.67;4.45;;;;;;;11.05;100.00;97791.69;4988085;28;20389;-76
2023/10/29 03:05:35;;;;;;;21.00;4.13;;;;;;;11.01;100.00;97806.84;4990746;28;20491;-76
2023/10/29 03:08:21;;;;;;;21.52;4.78;;;;;;;11.30;100.00;97792.19;4992172;28;20042;-76
2023/10/29 03:10:51;;;;;;;17.85;3.40;;;;;;;11.06;100.00;97787.28;4990569;28;20049;-76
2023/10/29 03:13:18;;;;;;;34.83;4.40;;;;;;;11.18;100.00;97799.31;4988558;28;20476;-76
2023/10/29 03:15:45;;;;;;;23.70;4.90;;;;;;;11.16;100.00;97788.13;4988071;28;20125;-76
2023/10/29 03:18:13;;;;;;;22.08;4.25;;;;;;;11.19;100.00;97780.84;4992255;28;20461;-76
2023/10/29 03:20:41;;;;;;;20.27;3.90;;;;;;;11.29;100.00;97787.88;4989664;28;20109;-76
2023/10/29 03:23:08;;;;;;;18.08;3.90;;;;;;;11.24;100.00;97775.19;4988663;28;20133;-76
2023/10/29 03:25:35;;;;;;;21.33;4.35;;;;;;;11.24;100.00;97784.84;4992523;28;20048;-76
2023/10/29 03:28:01;;;;;;;18.77;4.70;;;;;;;11.28;100.00;97765.25;4994279;28;20039;-76
2023/10/29 03:30:28;;;;;;;18.98;4.57;;;;;;;11.21;100.00;97771.06;4992240;28;20408;-76
2023/10/29 03:32:55;;;;;;;20.98;4.82;;;;;;;11.29;100.00;97773.00;4997258;28;20050;-76
2023/10/29 03:35:21;;;;;;;19.00;3.90;;;;;;;11.26;100.00;97767.19;4998452;28;20052;-76
2023/10/29 03:37:48;;;;;;;16.67;3.80;;;;;;;11.23;100.00;97776.16;4984416;28;20049;-77
2023/10/29 03:40:15;;;;;;;21.90;3.55;;;;;;;11.36;100.00;97766.25;4988751;28;20761;-77
2023/10/29 03:42:41;;;;;;;23.45;5.60;;;;;;;11.33;100.00;97768.31;4992267;28;20050;-77
2023/10/29 03:45:08;;;;;;;20.08;3.95;;;;;;;11.10;100.00;97758.09;4991079;28;20053;-77
2023/10/29 03:47:35;;;;;;;19.05;4.38;;;;;;;11.07;100.00;97757.53;4991917;28;20042;-77
2023/10/29 03:50:02;;;;;;;20.73;4.57;;;;;;;11.11;100.00;97761.53;4990344;28;20047;-77
2023/10/29 03:52:29;;;;;;;26.33;5.30;;;;;;;11.13;100.00;97760.41;4989498;28;20051;-77
2023/10/29 03:54:55;;;;;;;17.88;4.10;;;;;;;11.23;100.00;97767.50;4993494;28;20081;-77
2023/10/29 03:57:22;;;;;;;32.03;6.28;;;;;;;11.10;100.00;97778.19;4992848;28;20077;-77
2023/10/29 03:59:49;;;;;;;23.40;5.43;;;;;;;11.07;100.00;97775.84;4991571;28;20407;-76
2023/10/29 04:02:16;;;;;;;25.98;5.45;;;;;;;11.07;100.00;97770.63;4992937;28;20054;-76
2023/10/29 04:04:42;;;;;;;23.05;5.00;;;;;;;11.17;100.00;97780.16;4993321;28;20112;-77
2023/10/29 04:07:19;;;;;;;20.02;5.05;;;;;;;11.10;100.00;97779.03;4991954;28;20043;-76
2023/10/29 04:09:45;;;;;;;23.92;5.85;;;;;;;11.03;100.00;97785.75;4992174;28;20415;-75
2023/10/29 04:12:12;;;;;;;24.52;5.38;;;;;;;11.19;100.00;97786.06;4995303;28;20072;-75
2023/10/29 04:14:42;;;;;;;19.63;4.68;;;;;;;11.09;100.00;97756.41;4994714;28;20054;-75
2023/10/29 04:17:09;;;;;;;27.35;4.75;;;;;;;11.00;100.00;97789.47;4995193;28;20137;-76
2023/10/29 04:19:38;;;;;;;22.30;4.47;;;;;;;11.03;100.00;97785.75;4998787;28;20046;-76
2023/10/29 04:22:05;;;;;;;19.65;5.35;;;;;;;10.85;100.00;97776.84;5006246;28;20058;-76
2023/10/29 04:24:31;;;;;;;27.08;5.63;;;;;;;10.98;100.00;97786.16;4992815;28;20054;-76
2023/10/29 04:26:58;;;;;;;29.38;5.28;;;;;;;10.89;100.00;97778.25;4992178;28;20519;-76
2023/10/29 04:29:24;;;;;;;22.08;4.95;;;;;;;10.95;100.00;97780.34;4998413;28;20511;-76
2023/10/29 04:31:51;;;;;;;20.63;4.75;;;;;;;10.88;100.00;97771.38;4991167;28;20065;-76
2023/10/29 04:34:18;;;;;;;21.60;4.45;;;;;;;10.88;100.00;97782.66;5013319;28;20042;-77
2023/10/29 04:36:48;;;;;;;24.02;4.35;;;;;;;10.92;100.00;97783.22;4994277;28;20492;-76
2023/10/29 04:39:14;;;;;;;23.10;5.53;;;;;;;11.07;100.00;97789.75;4991863;28;20062;-76
2023/10/29 04:41:41;;;;;;;25.10;5.10;;;;;;;10.96;100.00;97774.13;4991196;28;20479;-77
2023/10/29 04:44:08;;;;;;;20.98;5.05;;;;;;;10.91;100.00;97798.09;4988399;28;20141;-77
2023/10/29 04:46:34;;;;;;;25.10;4.60;;;;;;;10.96;100.00;97806.41;4991962;28;20181;-77
2023/10/29 04:49:01;;;;;;;26.58;5.10;;;;;;;10.91;100.00;97792.06;4991838;28;20053;-77
2023/10/29 04:51:29;;;;;;;21.60;5.03;;;;;;;10.88;100.00;97811.44;4993548;28;20049;-77
2023/10/29 04:53:56;;;;;;;19.38;3.60;;;;;;;10.69;100.00;97804.31;4990869;28;20050;-77
2023/10/29 04:56:23;;;;;;;16.60;4.53;;;;;;;10.94;100.00;97815.31;4990812;28;20046;-77
2023/10/29 04:58:49;;;;;;;23.45;5.47;;;;;;;10.97;100.00;97809.84;4991763;28;20062;-78
2023/10/29 05:01:17;;;;;;;23.90;5.85;;;;;;;10.84;100.00;97807.44;4990349;28;20054;-77
2023/10/29 05:03:44;;;;;;;17.27;4.95;;;;;;;10.84;100.00;97807.44;4988949;28;20133;-77
2023/10/29 05:06:21;;;;;;;27.17;5.10;;;;;;;10.83;100.00;97806.59;4990370;28;20057;-77
2023/10/29 05:08:49;;;;;;;22.65;4.22;;;;;;;10.93;100.00;97805.84;4990342;28;20242;-77
2023/10/29 05:11:16;;;;;;;20.90;4.72;;;;;;;10.85;100.00;97821.34;4990485;28;20058;-77
2023/10/29 05:13:43;;;;;;;27.52;5.68;;;;;;;10.90;100.00;97820.00;4984666;28;20042;-77
2023/10/29 05:16:11;;;;;;;17.95;4.18;;;;;;;10.70;100.00;97833.97;4993922;28;20061;-77
2023/10/29 05:18:38;;;;;;;17.55;4.57;;;;;;;10.59;100.00;97837.47;4990811;28;20046;-78
2023/10/29 05:21:05;;;;;;;18.10;4.18;;;;;;;10.50;100.00;97846.06;4992228;28;20050;-78
2023/10/29 05:23:32;;;;;;;23.00;4.75;;;;;;;10.63;100.00;97858.00;4995047;28;20050;-77
2023/10/29 05:25:58;;;;;;;26.50;4.22;;;;;;;10.70;100.00;97853.09;4991318;28;20058;-77
2023/10/29 05:28:26;;;;;;;21.67;5.13;;;;;;;10.56;100.00;97856.03;4997417;28;20050;-77
2023/10/29 05:30:53;;;;;;;23.17;4.20;;;;;;;10.52;100.00;97871.16;4991353;28;20058;-77
2023/10/29 05:33:20;;;;;;;15.68;3.78;;;;;;;10.57;100.00;97873.38;4988761;28;20141;-77
2023/10/29 05:35:47;;;;;;;23.90;4.38;;;;;;;10.55;100.00;97864.84;4994773;28;20054;-77
2023/10/29 05:38:14;;;;;;;24.55;4.78;;;;;;;10.59;100.00;97863.66;4991519;28;20054;-77
2023/10/29 05:40:42;;;;;;;21.35;4.53;;;;;;;10.54;100.00;97878.91;4998173;28;20054;-77
2023/10/29 05:43:08;;;;;;;20.88;4.53;;;;;;;10.45;100.00;97872.63;4979352;28;20097;-77
2023/10/29 05:45:35;;;;;;;22.70;5.30;;;;;;;10.52;100.00;97872.97;4994941;28;20066;-77
2023/10/29 05:48:02;;;;;;;25.75;6.53;;;;;;;10.72;100.00;97892.22;4993722;28;20540;-77
2023/10/29 05:50:29;;;;;;;24.13;5.22;;;;;;;10.64;100.00;97880.63;4997078;28;20050;-77
2023/10/29 05:52:56;;;;;;;25.92;5.13;;;;;;;10.81;100.00;97897.50;4993294;28;20049;-78
2023/10/29 05:55:22;;;;;;;19.42;5.30;;;;;;;10.80;100.00;97895.00;4993456;28;20592;-77
2023/10/29 05:57:49;;;;;;;25.67;5.63;;;;;;;10.68;100.00;97907.34;4991478;28;20046;-75
2023/10/29 06:00:17;;;;;;;28.15;5.82;;;;;;;10.67;100.00;97884.75;4990783;28;20420;-76
2023/10/29 06:02:44;;;;;;;23.13;5.38;;;;;;;10.76;100.00;97899.69;4989051;28;20054;-76
2023/10/29 06:05:11;;;;;;;20.48;5.30;;;;;;;10.34;100.00;97854.38;4988966;28;20542;-77
2023/10/29 06:07:42;;;;;;;25.95;5.28;;;;;;;10.68;100.00;97901.28;4993994;28;20445;-77
2023/10/29 06:10:12;;;;;;;39.13;6.13;;;;;;;10.52;100.00;97889.47;4994623;28;20472;-77
2023/10/29 06:12:40;;;;;;;27.83;5.22;;;;;;;10.73;100.00;97899.94;4993938;28;20078;-77
2023/10/29 06:15:11;;;;;;;25.40;4.85;;;;;;;10.45;100.00;97886.53;4991043;28;20407;-77
2023/10/29 06:17:39;;;;;;;31.52;5.03;;;;;;;10.48;100.00;97887.22;4992752;28;20050;-76
2023/10/29 06:20:08;;;;;;;25.42;4.90;;;;;;;10.59;100.00;97908.13;4991569;28;20058;-77
2023/10/29 06:22:35;;;;;;;24.60;4.45;;;;;;;10.61;100.00;97906.22;4985796;28;20065;-77
2023/10/29 06:25:02;;;;;;;25.02;4.82;;;;;;;10.40;100.00;97917.47;4992239;28;20508;-77
2023/10/29 06:27:28;;;;;;;18.10;4.00;;;;;;;10.51;100.00;97916.59;4984808;28;20046;-77
2023/10/29 06:29:55;;;;;;;23.25;5.47;;;;;;;10.40;100.00;97907.00;4989741;28;20058;-77
2023/10/29 06:32:22;;;;;;;24.08;3.92;;;;;;;10.48;100.00;97924.69;4994392;28;20050;-77
2023/10/29 06:34:48;;;;;;;22.00;4.60;;;;;;;10.66;100.00;97917.13;4990748;28;20138;-77
2023/10/29 06:37:15;;;;;;;22.92;4.10;;;;;;;10.51;100.00;97916.59;4991192;28;20054;-77
2023/10/29 06:39:42;;;;;;;23.45;4.60;;;;;;;10.63;100.00;97923.44;4992499;28;20046;-77
2023/10/29 06:42:09;;;;;;;25.48;5.50;;;;;;;10.61;100.00;97924.53;4987343;28;20046;-77
2023/10/29 06:44:35;;;;;;;22.65;4.78;;;;;;;10.45;100.00;97909.25;4993194;28;20469;-77
2023/10/29 06:47:03;;;;;;;30.77;5.18;;;;;;;10.40;100.00;97908.81;4990701;28;20133;-77
2023/10/29 06:49:30;;;;;;;23.63;4.82;;;;;;;10.31;100.00;97914.75;4990282;28;20050;-77
2023/10/29 06:51:57;;;;;;;33.72;6.22;;;;;;;10.43;100.00;97919.03;4993295;28;20530;-76
2023/10/29 06:54:24;;;;;;;29.35;6.13;;;;;;;10.44;100.00;97923.28;4989716;28;20046;-77
2023/10/29 06:56:51;;;;;;;20.23;4.53;;;;;;;10.70;100.00;97929.00;4992463;28;20392;-77
2023/10/29 06:59:18;;;;;;;16.88;4.80;;;;;;;10.56;100.00;97937.97;4989416;28;20337;-77
2023/10/29 07:01:46;;;;;;;29.08;5.28;;;;;;;10.52;100.00;97928.72;4988304;28;20056;-77
2023/10/29 07:04:13;;;;;;;27.77;6.22;;;;;;;10.56;100.00;97935.34;4997045;28;20053;-77
2023/10/29 07:06:40;;;;;;;20.88;4.40;;;;;;;10.29;100.00;97953.25;5005636;28;21479;-77
2023/10/29 07:09:09;;;;;;;20.17;4.25;;;;;;;10.38;100.00;97947.34;4994788;28;20496;-76
2023/10/29 07:11:36;;;;;;;26.27;4.78;;;;;;;10.44;100.00;97939.78;4989780;28;20648;-77
2023/10/29 07:14:03;;;;;;;25.05;4.35;;;;;;;10.51;100.00;97947.16;4989831;28;20047;-77
2023/10/29 07:16:30;;;;;;;24.88;5.47;;;;;;;10.44;100.00;97941.59;4993547;28;20057;-77
2023/10/29 07:18:57;;;;;;;20.95;4.28;;;;;;;10.72;100.00;97949.81;4990773;28;20046;-77
2023/10/29 07:21:24;;;;;;;21.27;5.30;;;;;;;10.60;100.00;97955.06;4990804;28;20128;-77
2023/10/29 07:23:53;;;;;;;24.00;5.85;;;;;;;10.43;100.00;97938.16;4985907;28;20057;-77
2023/10/29 07:26:20;;;;;;;28.63;5.97;;;;;;;10.49;100.00;97938.59;4992941;28;20435;-76
2023/10/29 07:28:46;;;;;;;32.63;6.65;;;;;;;10.49;100.00;97978.66;4996330;28;20046;-76
2023/10/29 07:31:13;;;;;;;20.55;4.63;;;;;;;10.45;100.00;97941.47;4993923;28;20054;-77
2023/10/29 07:33:42;;;;;;;22.65;4.57;;;;;;;10.66;100.00;97945.91;4996675;28;20076;-77
2023/10/29 07:36:08;;;;;;;23.52;5.05;;;;;;;10.64;100.00;97938.19;4993260;28;20484;-76
2023/10/29 07:38:35;;;;;;;31.48;6.22;;;;;;;10.44;100.00;97952.06;4992807;28;20042;-77
2023/10/29 07:41:02;;;;;;;24.08;4.70;;;;;;;10.54;100.00;97942.50;4992550;28;20072;-77
2023/10/29 07:43:29;;;;;;;26.08;5.05;;;;;;;10.51;100.00;97941.94;4990310;28;20055;-77
2023/10/29 07:46:05;;;;;;;27.02;6.22;;;;;;;10.65;100.00;97946.84;4988389;28;20065;-77
2023/10/29 07:48:32;;;;;;;27.13;5.38;;;;;;;10.64;100.00;97938.19;4988955;28;20046;-77
2023/10/29 07:50:59;;;;;;;23.95;6.22;;;;;;;10.49;100.00;97936.81;4990105;28;20532;-77
2023/10/29 07:53:28;;;;;;;26.48;5.28;;;;;;;10.52;100.00;97941.81;4990885;28;20294;-77
2023/10/29 07:55:54;;;;;;;29.80;6.22;;;;;;;10.69;100.00;97952.66;4986614;28;20411;-77
2023/10/29 07:58:21;;;;;;;30.60;6.47;;;;;;;10.74;100.00;97946.09;4987606;28;20046;-77
2023/10/29 08:00:48;;;;;;;25.23;5.43;;;;;;;10.58;100.00;97956.16;4990403;28;20464;-76
2023/10/29 08:03:16;;;;;;;27.55;5.97;;;;;;;10.54;100.00;97955.59;4980840;28;20137;-77
2023/10/29 08:05:51;;;;;;;31.90;5.97;;;;;;;10.52;100.00;97962.72;4985626;28;20046;-77
2023/10/29 08:08:18;;;;;;;35.45;5.30;;;;;;;10.36;100.00;97959.72;4985063;28;20042;-77
2023/10/29 08:10:45;;;;;;;23.60;5.53;;;;;;;10.33;100.00;98004.41;4982458;28;20448;-76
2023/10/29 08:13:12;;;;;;;24.52;5.03;;;;;;;10.30;100.00;97960.97;4983755;28;20054;-77
2023/10/29 08:15:39;;;;;;;18.83;5.15;;;;;;;10.39;100.00;97975.13;4979371;28;20047;-77
2023/10/29 08:18:09;;;;;;;27.67;6.13;;;;;;;10.27;100.00;97966.47;4984069;28;20411;-77
2023/10/29 08:20:35;;;;;;;29.80;5.75;;;;;;;10.37;100.00;98003.19;4982506;28;20109;-76
2023/10/29 08:23:02;;;;;;;23.17;5.63;;;;;;;10.39;100.00;97975.13;4989000;28;20389;-76
2023/10/29 08:25:29;;;;;;;36.33;7.35;;;;;;;10.47;100.00;97977.16;4989507;28;20043;-77
2023/10/29 08:27:55;;;;;;;29.55;5.07;;;;;;;10.24;100.00;97985.03;4988710;28;20054;-76
2023/10/29 08:30:22;;;;;;;35.47;6.05;;;;;;;10.18;100.00;97980.28;4990462;28;20061;-77
2023/10/29 08:32:49;;;;;;;32.95;6.13;;;;;;;10.31;100.00;97985.38;4986950;28;20053;-77
2023/10/29 08:35:15;;;;;;;28.77;7.32;;;;;;;10.08;100.00;97983.63;4985774;28;20050;-77
2023/10/29 08:37:42;;;;;;;27.08;6.13;;;;;;;10.15;100.00;97981.34;4990188;28;20057;-76
2023/10/29 08:40:12;;;;;;;25.45;5.07;;;;;;;10.29;100.00;97992.47;4980652;28;20141;-76
2023/10/29 08:42:39;;;;;;;34.17;5.88;;;;;;;10.25;100.00;97990.13;4982024;28;20061;-77
2023/10/29 08:45:06;;;;;;;29.15;6.25;;;;;;;10.22;100.00;97998.22;4990197;28;20053;-77
2023/10/29 08:47:33;;;;;;;25.58;5.85;;;;;;;10.07;100.00;97996.81;4985851;28;20057;-77
2023/10/29 08:49:59;;;;;;;18.58;4.97;;;;;;;10.09;100.00;97997.50;4994914;28;20046;-77
2023/10/29 08:52:26;;;;;;;28.65;5.15;;;;;;;10.21;100.00;98007.00;4984782;28;20050;-77
2023/10/29 08:54:53;;;;;;;25.35;5.32;;;;;;;10.17;100.00;97989.91;4987643;28;20088;-77
2023/10/29 08:57:21;;;;;;;27.40;6.45;;;;;;;10.08;100.00;98007.16;4985827;28;20078;-77
2023/10/29 08:59:48;;;;;;;26.00;5.40;;;;;;;9.93;100.00;97990.06;4989164;28;20468;-76
2023/10/29 09:02:15;;;;;;;22.55;5.90;;;;;;;9.87;100.00;97990.56;4988754;28;20432;-77
2023/10/29 09:04:41;;;;;;;24.33;5.70;;;;;;;9.94;100.00;98010.03;4989931;28;20069;-76
2023/10/29 09:07:08;;;;;;;24.17;5.13;;;;;;;10.05;100.00;98012.63;4990150;28;20057;-77
2023/10/29 09:09:37;;;;;;;33.25;5.65;;;;;;;10.04;100.00;98013.59;4990775;28;20421;-77
2023/10/29 09:12:04;;;;;;;24.80;5.13;;;;;;;9.95;100.00;97995.16;4989608;28;20464;-77
2023/10/29 09:14:31;;;;;;;30.73;6.85;;;;;;;9.94;100.00;98007.41;4989226;28;20401;-77
2023/10/29 09:16:57;;;;;;;21.88;4.68;;;;;;;9.87;100.00;98012.28;4988512;28;20050;-77
2023/10/29 09:19:25;;;;;;;25.25;5.85;;;;;;;9.74;100.00;98036.88;4983366;28;20124;-77
2023/10/29 09:21:52;;;;;;;23.45;5.63;;;;;;;9.81;100.00;98004.94;4982527;28;20209;-77
2023/10/29 09:24:18;;;;;;;23.55;5.32;;;;;;;9.99;100.00;98007.88;4989395;28;20385;-77
2023/10/29 09:26:45;;;;;;;39.60;6.65;;;;;;;9.92;100.00;98034.63;4984168;28;20059;-77
2023/10/29 09:29:12;;;;;;;20.23;5.13;;;;;;;10.03;100.00;98019.75;4987939;28;20404;-77
2023/10/29 09:31:38;;;;;;;24.02;5.45;;;;;;;9.86;100.00;98026.31;4988903;28;20057;-77
2023/10/29 09:34:05;;;;;;;27.75;4.65;;;;;;;9.84;100.00;98024.75;4988709;28;20100;-77
2023/10/29 09:36:32;;;;;;;36.00;6.95;;;;;;;10.00;100.00;98035.66;4990221;28;20054;-77
2023/10/29 09:38:58;;;;;;;27.13;6.28;;;;;;;10.05;100.00;98024.88;4988090;28;20053;-77
2023/10/29 09:41:25;;;;;;;31.92;6.78;;;;;;;10.13;100.00;98037.31;4988345;28;20419;-77
2023/10/29 09:43:57;;;;;;;24.15;5.47;;;;;;;10.14;100.00;98025.94;4980912;28;20056;-77
2023/10/29 09:46:24;;;;;;;25.02;5.45;;;;;;;9.91;100.00;97999.81;4987686;28;20419;-77
2023/10/29 09:48:52;;;;;;;28.95;5.55;;;;;;;9.99;100.00;98012.28;4989612;28;20096;-77
2023/10/29 09:51:20;;;;;;;30.30;5.60;;;;;;;9.96;100.00;98005.50;4985722;28;20050;-77
2023/10/29 09:53:49;;;;;;;28.63;6.40;;;;;;;10.04;100.00;98015.38;4988099;28;20046;-76
2023/10/29 09:56:16;;;;;;;33.55;6.45;;;;;;;9.94;100.00;98023.09;4986146;28;20062;-76
2023/10/29 09:58:42;;;;;;;28.40;7.38;;;;;;;9.73;100.00;98027.38;4979220;28;20045;-76
2023/10/29 10:01:09;;;;;;;23.92;6.15;;;;;;;9.86;100.00;98025.47;4989343;28;20046;-76
2023/10/29 10:03:36;;;;;;;27.38;5.45;;;;;;;9.90;100.00;98045.22;4980240;28;20121;-76
2023/10/29 10:06:03;;;;;;;36.92;7.68;;;;;;;9.86;100.00;98033.31;4988093;28;20072;-76
2023/10/29 10:08:32;;;;;;;27.98;6.30;;;;;;;9.78;100.00;98041.75;4982429;28;20050;-76
2023/10/29 10:11:00;;;;;;;28.27;7.85;;;;;;;9.83;100.00;98039.63;4988024;28;20046;-76
2023/10/29 10:13:41;;;;;;;32.92;6.88;;;;;;;9.94;100.00;98044.00;4982197;28;20054;-77
2023/10/29 10:16:10;;;;;;;35.50;8.23;;;;;;;9.96;100.00;98044.72;4988957;28;20523;-76
2023/10/29 10:18:52;;;;;;;32.92;7.15;;;;;;;10.17;100.00;98044.81;4989163;28;20038;-77
2023/10/29 10:21:21;;;;;;;27.15;6.03;;;;;;;9.86;100.00;98036.78;4984068;28;20069;-77
2023/10/29 10:23:51;;;;;;;32.72;6.53;;;;;;;9.89;100.00;98038.31;4983924;28;20050;-76
2023/10/29 10:26:30;;;;;;;25.55;6.22;;;;;;;9.79;100.00;98053.88;4988225;28;20061;-76
2023/10/29 10:28:58;;;;;;;34.25;6.40;;;;;;;9.91;100.00;98057.31;4988364;28;20471;-77
2023/10/29 10:31:29;;;;;;;29.17;6.95;;;;;;;9.97;100.00;98041.16;4988862;28;20496;-76
2023/10/29 10:34:09;;;;;;;20.08;5.38;;;;;;;9.83;100.00;98055.28;4986040;28;20404;-76
2023/10/29 10:36:36;;;;;;;27.83;5.22;;;;;;;9.83;100.00;98057.09;4991421;28;20400;-77
2023/10/29 10:39:03;;;;;;;38.85;7.95;;;;;;;9.65;100.00;98054.94;4988886;28;20414;-76
2023/10/29 10:41:42;;;;;;;28.38;7.38;;;;;;;9.80;100.00;98057.31;4988340;28;20073;-77
2023/10/29 10:44:13;;;;;;;40.15;7.30;;;;;;;9.75;100.00;98051.59;4987538;28;20061;-76
2023/10/29 10:46:51;;;;;;;34.33;7.45;;;;;;;9.58;100.00;98064.19;4988154;28;20391;-75
2023/10/29 10:49:19;;;;;;;37.47;6.25;;;;;;;9.82;100.00;98076.31;4986601;28;20057;-76
2023/10/29 10:51:48;;;;;;;36.78;7.47;;;;;;;9.91;100.00;98072.97;4986102;28;20054;-76
2023/10/29 10:54:18;;;;;;;34.88;6.65;;;;;;;9.65;100.00;98064.53;4981759;28;20056;-76
2023/10/29 10:56:46;;;;;;;35.17;6.80;;;;;;;9.69;100.00;98086.88;4985685;28;20050;-76
2023/10/29 10:59:13;;;;;;;35.47;8.18;;;;;;;9.80;100.00;98059.94;4990241;28;20121;-76
2023/10/29 11:01:39;;;;;;;26.63;6.47;;;;;;;10.00;100.00;98053.97;4988324;28;20050;-76
2023/10/29 11:04:08;;;;;;;34.60;8.02;;;;;;;10.02;100.00;98046.88;4991408;28;20050;-76
2023/10/29 11:06:39;;;;;;;33.35;6.82;;;;;;;9.94;100.00;98056.25;4991704;28;20811;-75
2023/10/29 11:09:14;;;;;;;27.90;6.55;;;;;;;9.71;100.00;98071.91;4990953;28;20050;-76
2023/10/29 11:11:50;;;;;;;31.10;8.02;;;;;;;9.70;100.00;98065.00;4988567;28;20515;-76
2023/10/29 11:14:18;;;;;;;31.83;6.38;;;;;;;9.80;100.00;98060.75;4992027;28;20076;-75
2023/10/29 11:16:47;;;;;;;28.45;5.93;;;;;;;9.84;100.00;98062.19;4992388;28;20496;-75
2023/10/29 11:19:33;;;;;;;27.95;6.13;;;;;;;9.75;100.00;98062.88;4990460;28;20543;-76
2023/10/29 11:22:18;;;;;;;35.97;7.65;;;;;;;9.91;100.00;98052.06;4990777;28;20058;-76